Home > Products > Valid Products > TAF

000
FTUS42 KMFL 021522 AAA
TAFAPF
TAF AMD
KAPF 021522Z 0215/0312 10008KT P6SM VCSH SCT025 SCT050
     FM021800 21008KT P6SM VCTS SCT025CB BKN050
     FM022300 VRB03KT P6SM SCT040=



000
FTUS42 KMFL 021522 AAA
TAFAPF
TAF AMD
KAPF 021522Z 0215/0312 10008KT P6SM VCSH SCT025 SCT050
     FM021800 21008KT P6SM VCTS SCT025CB BKN050
     FM022300 VRB03KT P6SM SCT040=



000
FTUS42 KMFL 021517 AAA
TAFMIA
TAF AMD
KMIA 021517Z 0215/0312 12010G15KT P6SM VCSH SCT030 SCT050 BKN250
     FM022300 10005KT P6SM VCSH SCT030 SCT250=



000
FTUS42 KMFL 021517 AAA
TAFMIA
TAF AMD
KMIA 021517Z 0215/0312 12010G15KT P6SM VCSH SCT030 SCT050 BKN250
     FM022300 10005KT P6SM VCSH SCT030 SCT250=



000
FTUS42 KMFL 021512 AAA
TAFFLL
TAF AMD
KFLL 021512Z 0215/0312 10010G15KT P6SM VCSH SCT030 SCT070
      TEMPO 0215/0217 VRB10G20KT 5SM SHRA BKN030 BKN060
     FM022300 10007KT P6SM SCT030 SCT250=



000
FTUS42 KMFL 021512 AAA
TAFFLL
TAF AMD
KFLL 021512Z 0215/0312 10010G15KT P6SM VCSH SCT030 SCT070
      TEMPO 0215/0217 VRB10G20KT 5SM SHRA BKN030 BKN060
     FM022300 10007KT P6SM SCT030 SCT250=



000
FTUS42 KMFL 021509 AAA
TAFPBI
TAF AMD
KPBI 021509Z 0215/0312 12010KT P6SM VCSH SCT027 SCT040 BKN070
     FM021700 12011KT P6SM VCSH SCT025 SCT040
     FM022200 09006KT P6SM SCT030=



000
FTUS42 KMFL 021509 AAA
TAFPBI
TAF AMD
KPBI 021509Z 0215/0312 12010KT P6SM VCSH SCT027 SCT040 BKN070
     FM021700 12011KT P6SM VCSH SCT025 SCT040
     FM022200 09006KT P6SM SCT030=



000
FTUS42 KMFL 021140
TAFPBI
TAF
KPBI 021140Z 0212/0312 VRB03KT P6SM VCSH SCT023 SCT040
     FM021300 10010KT P6SM VCSH SCT030 SCT050
     FM022200 09006KT P6SM SCT030=



000
FTUS42 KMFL 021140
TAFMIA
TAF
KMIA 021140Z 0212/0312 VRB02KT P6SM VCSH SCT025 SCT040
     FM021300 10010KT P6SM VCSH SCT030 SCT050
     FM022300 10005KT P6SM SCT030=



000
FTUS42 KMFL 021140
TAFFLL
TAF
KFLL 021140Z 0212/0312 VRB03KT P6SM VCSH FEW028 SCT040
     FM021300 10010KT P6SM VCSH SCT030 SCT040
     FM022300 10007KT P6SM SCT030 SCT250=



000
FTUS42 KMFL 021140
TAFAPF
TAF
KAPF 021140Z 0212/0312 06004KT P6SM FEW250
     FM021400 09007KT P6SM SCT035 SCT060
     FM021800 21008KT P6SM VCTS SCT030CB BKN050
     FM022300 VRB03KT P6SM SCT040=



000
FTUS42 KMFL 021140
TAFPBI
TAF
KPBI 021140Z 0212/0312 VRB03KT P6SM VCSH SCT023 SCT040
     FM021300 10010KT P6SM VCSH SCT030 SCT050
     FM022200 09006KT P6SM SCT030=



000
FTUS42 KMFL 021140
TAFAPF
TAF
KAPF 021140Z 0212/0312 06004KT P6SM FEW250
     FM021400 09007KT P6SM SCT035 SCT060
     FM021800 21008KT P6SM VCTS SCT030CB BKN050
     FM022300 VRB03KT P6SM SCT040=



000
FTUS42 KMFL 021140
TAFFLL
TAF
KFLL 021140Z 0212/0312 VRB03KT P6SM VCSH FEW028 SCT040
     FM021300 10010KT P6SM VCSH SCT030 SCT040
     FM022300 10007KT P6SM SCT030 SCT250=



000
FTUS42 KMFL 021140
TAFMIA
TAF
KMIA 021140Z 0212/0312 VRB02KT P6SM VCSH SCT025 SCT040
     FM021300 10010KT P6SM VCSH SCT030 SCT050
     FM022300 10005KT P6SM SCT030=



000
FTUS42 KMFL 020857 AAA
TAFAPF
TAF AMD
KAPF 020857Z 0209/0306 VRB03KT P6SM SKC
     FM021400 09007KT P6SM SCT035 SCT060
     FM021800 21008KT P6SM VCTS SCT030CB BKN050
     FM022300 VRB03KT P6SM SCT040=



000
FTUS42 KMFL 020857 AAA
TAFAPF
TAF AMD
KAPF 020857Z 0209/0306 VRB03KT P6SM SKC
     FM021400 09007KT P6SM SCT035 SCT060
     FM021800 21008KT P6SM VCTS SCT030CB BKN050
     FM022300 VRB03KT P6SM SCT040=



000
FTUS42 KMFL 020856 AAA
TAFFLL
TAF AMD
KFLL 020856Z 0209/0306 09005KT P6SM SCT025 SCT250
     FM021200 10010KT P6SM VCSH SCT030
     FM022200 10007KT P6SM SCT030 SCT250=



000
FTUS42 KMFL 020856 AAA
TAFPBI
TAF AMD
KPBI 020856Z 0209/0306 10004KT P6SM FEW025
     FM021200 10010KT P6SM VCSH SCT030
     FM022200 09006KT P6SM SCT030=



000
FTUS42 KMFL 020856 AAA
TAFPBI
TAF AMD
KPBI 020856Z 0209/0306 10004KT P6SM FEW025
     FM021200 10010KT P6SM VCSH SCT030
     FM022200 09006KT P6SM SCT030=



000
FTUS42 KMFL 020855 AAA
TAFMIA
TAF AMD
KMIA 020855Z 0209/0306 09004KT P6SM FEW025
     FM021200 10010KT P6SM VCSH SCT030
     FM022200 10005KT P6SM SCT030=



000
FTUS42 KMFL 020855 AAA
TAFMIA
TAF AMD
KMIA 020855Z 0209/0306 09004KT P6SM FEW025
     FM021200 10010KT P6SM VCSH SCT030
     FM022200 10005KT P6SM SCT030=



000
FTUS42 KMFL 020539
TAFMIA
TAF
KMIA 020539Z 0206/0306 09006KT P6SM FEW025 SCT100 SCT250
     FM021200 10010KT P6SM VCSH SCT030
     FM022200 10005KT P6SM SCT030=



000
FTUS42 KMFL 020539
TAFFLL
TAF
KFLL 020539Z 0206/0306 09006KT P6SM VCSH SCT025 SCT250
     FM021200 10010KT P6SM VCSH SCT030
     FM022200 10007KT P6SM SCT030 SCT250=



000
FTUS42 KMFL 020539
TAFAPF
TAF
KAPF 020539Z 0206/0306 VRB04KT P6SM FEW090
     FM021400 09007KT P6SM SCT035 SCT060
     FM021800 21008KT P6SM VCTS SCT030CB BKN050
     FM022300 VRB03KT P6SM SCT040=



000
FTUS42 KMFL 020539
TAFPBI
TAF
KPBI 020539Z 0206/0306 10006KT P6SM SCT030
     FM021200 10010KT P6SM VCSH SCT030
     FM022200 09006KT P6SM SCT030=



000
FTUS42 KMFL 020539
TAFMIA
TAF
KMIA 020539Z 0206/0306 09006KT P6SM FEW025 SCT100 SCT250
     FM021200 10010KT P6SM VCSH SCT030
     FM022200 10005KT P6SM SCT030=



000
FTUS42 KMFL 020539
TAFAPF
TAF
KAPF 020539Z 0206/0306 VRB04KT P6SM FEW090
     FM021400 09007KT P6SM SCT035 SCT060
     FM021800 21008KT P6SM VCTS SCT030CB BKN050
     FM022300 VRB03KT P6SM SCT040=



000
FTUS42 KMFL 020539
TAFFLL
TAF
KFLL 020539Z 0206/0306 09006KT P6SM VCSH SCT025 SCT250
     FM021200 10010KT P6SM VCSH SCT030
     FM022200 10007KT P6SM SCT030 SCT250=



000
FTUS42 KMFL 020539
TAFPBI
TAF
KPBI 020539Z 0206/0306 10006KT P6SM SCT030
     FM021200 10010KT P6SM VCSH SCT030
     FM022200 09006KT P6SM SCT030=



000
FTUS42 KMFL 020233 AAA
TAFAPF
TAF AMD
KAPF 020233Z 0203/0224 VRB04KT P6SM FEW090
     FM021400 09007KT P6SM SCT035 SCT060
     FM021800 19008KT P6SM VCTS SCT030CB BKN050=



000
FTUS42 KMFL 020233 AAA
TAFAPF
TAF AMD
KAPF 020233Z 0203/0224 VRB04KT P6SM FEW090
     FM021400 09007KT P6SM SCT035 SCT060
     FM021800 19008KT P6SM VCTS SCT030CB BKN050=



000
FTUS42 KMFL 020232 AAA
TAFPBI
TAF AMD
KPBI 020232Z 0203/0224 10006KT P6SM SCT030
     FM021200 10010KT P6SM VCSH SCT030
     FM021800 09010KT P6SM SCT030=



000
FTUS42 KMFL 020232 AAA
TAFFLL
TAF AMD
KFLL 020232Z 0203/0224 09006KT P6SM VCSH SCT025 SCT250
     FM021200 10010KT P6SM VCSH SCT030
     FM021900 10010KT P6SM SCT030 SCT250=



000
FTUS42 KMFL 020232 AAA
TAFFLL
TAF AMD
KFLL 020232Z 0203/0224 09006KT P6SM VCSH SCT025 SCT250
     FM021200 10010KT P6SM VCSH SCT030
     FM021900 10010KT P6SM SCT030 SCT250=



000
FTUS42 KMFL 020232 AAA
TAFPBI
TAF AMD
KPBI 020232Z 0203/0224 10006KT P6SM SCT030
     FM021200 10010KT P6SM VCSH SCT030
     FM021800 09010KT P6SM SCT030=



000
FTUS42 KMFL 020231 AAA
TAFMIA
TAF AMD
KMIA 020231Z 0203/0224 09006KT P6SM FEW025 SCT100 SCT250
     FM021200 10010KT P6SM VCSH SCT030
     FM021900 10010KT P6SM SCT030=



000
FTUS42 KMFL 020231 AAA
TAFMIA
TAF AMD
KMIA 020231Z 0203/0224 09006KT P6SM FEW025 SCT100 SCT250
     FM021200 10010KT P6SM VCSH SCT030
     FM021900 10010KT P6SM SCT030=



000
FTUS42 KMFL 012327
TAFPBI
TAF
KPBI 012327Z 0200/0224 10006KT P6SM SCT030 SCT040
     FM021200 10010KT P6SM VCSH SCT030
     FM021800 09010KT P6SM SCT030=



000
FTUS42 KMFL 012327
TAFFLL
TAF
KFLL 012327Z 0200/0224 10006KT P6SM FEW030 SCT250
     FM021200 10010KT P6SM VCSH SCT030
     FM021900 10010KT P6SM SCT030 SCT250=



000
FTUS42 KMFL 012327
TAFMIA
TAF
KMIA 012327Z 0200/0224 10006KT P6SM SCT035 SCT100 SCT250
     FM021200 10010KT P6SM VCSH SCT030
     FM021900 10010KT P6SM SCT030=



000
FTUS42 KMFL 012327
TAFAPF
TAF
KAPF 012327Z 0200/0224 VRB04KT P6SM SCT080 BKN150
     FM021400 09007KT P6SM SCT035 SCT060
     FM021800 19008KT P6SM VCTS SCT030CB BKN050=



000
FTUS42 KMFL 012327
TAFPBI
TAF
KPBI 012327Z 0200/0224 10006KT P6SM SCT030 SCT040
     FM021200 10010KT P6SM VCSH SCT030
     FM021800 09010KT P6SM SCT030=



000
FTUS42 KMFL 012327
TAFFLL
TAF
KFLL 012327Z 0200/0224 10006KT P6SM FEW030 SCT250
     FM021200 10010KT P6SM VCSH SCT030
     FM021900 10010KT P6SM SCT030 SCT250=



000
FTUS42 KMFL 012327
TAFMIA
TAF
KMIA 012327Z 0200/0224 10006KT P6SM SCT035 SCT100 SCT250
     FM021200 10010KT P6SM VCSH SCT030
     FM021900 10010KT P6SM SCT030=



000
FTUS42 KMFL 012327
TAFAPF
TAF
KAPF 012327Z 0200/0224 VRB04KT P6SM SCT080 BKN150
     FM021400 09007KT P6SM SCT035 SCT060
     FM021800 19008KT P6SM VCTS SCT030CB BKN050=



000
FTUS42 KMFL 012108 AAA
TAFFLL
TAF AMD
KFLL 012108Z 0121/0218 10010KT P6SM SCT035 SCT250
     FM020000 10006KT P6SM FEW030
     FM021400 10010KT P6SM SCT030=



000
FTUS42 KMFL 012108 AAA
TAFPBI
TAF AMD
KPBI 012108Z 0121/0218 11010KT P6SM SCT030 BKN040
     FM020000 10006KT P6SM FEW030
     FM021400 09010KT P6SM SCT030=



000
FTUS42 KMFL 012108 AAA
TAFMIA
TAF AMD
KMIA 012108Z 0121/0218 12010KT P6SM FEW035 SCT050 SCT100
     FM020000 10005KT P6SM FEW025
     FM021400 10010KT P6SM SCT030=



000
FTUS42 KMFL 012108 AAA
TAFFLL
TAF AMD
KFLL 012108Z 0121/0218 10010KT P6SM SCT035 SCT250
     FM020000 10006KT P6SM FEW030
     FM021400 10010KT P6SM SCT030=



000
FTUS42 KMFL 012108 AAA
TAFPBI
TAF AMD
KPBI 012108Z 0121/0218 11010KT P6SM SCT030 BKN040
     FM020000 10006KT P6SM FEW030
     FM021400 09010KT P6SM SCT030=



000
FTUS42 KMFL 012108 AAA
TAFMIA
TAF AMD
KMIA 012108Z 0121/0218 12010KT P6SM FEW035 SCT050 SCT100
     FM020000 10005KT P6SM FEW025
     FM021400 10010KT P6SM SCT030=



000
FTUS42 KMFL 012108 AAD
TAFAPF
TAF AMD
KAPF 012108Z 0121/0218 VRB05KT P6SM VCSH FEW120 OVC250
     FM020000 07004KT P6SM FEW030
     FM021400 09007KT P6SM SCT035 SCT060=



000
FTUS42 KMFL 012108 AAD
TAFAPF
TAF AMD
KAPF 012108Z 0121/0218 VRB05KT P6SM VCSH FEW120 OVC250
     FM020000 07004KT P6SM FEW030
     FM021400 09007KT P6SM SCT035 SCT060=



000
FTUS42 KMFL 012000 AAC
TAFAPF
TAF AMD
KAPF 012000Z 0120/0218 VRB10KT 5SM -TSRA BKN035CB BKN060
     FM012030 VRB05KT P6SM VCSH SCT080 BKN150 BKN250
     FM020000 07004KT P6SM FEW030
     FM021400 09007KT P6SM SCT035 SCT060=



000
FTUS42 KMFL 012000 AAC
TAFAPF
TAF AMD
KAPF 012000Z 0120/0218 VRB10KT 5SM -TSRA BKN035CB BKN060
     FM012030 VRB05KT P6SM VCSH SCT080 BKN150 BKN250
     FM020000 07004KT P6SM FEW030
     FM021400 09007KT P6SM SCT035 SCT060=



000
FTUS42 KMFL 011932 AAB
TAFAPF
TAF AMD
KAPF 011932Z 0120/0218 VRB10G30KT 1SM TSRA BKN030CB BKN060
     FM012030 VRB05KT P6SM SCT080 BKN150 BKN250
     FM020000 07004KT P6SM FEW030
     FM021400 09007KT P6SM SCT035 SCT060=



000
FTUS42 KMFL 011932 AAB
TAFAPF
TAF AMD
KAPF 011932Z 0120/0218 VRB10G30KT 1SM TSRA BKN030CB BKN060
     FM012030 VRB05KT P6SM SCT080 BKN150 BKN250
     FM020000 07004KT P6SM FEW030
     FM021400 09007KT P6SM SCT035 SCT060=



000
FTUS42 KMFL 011909 AAA
TAFAPF
TAF AMD
KAPF 011909Z 0119/0218 VRB08KT P6SM VCTS SCT030CB BKN060
      TEMPO 0119/0120 VRB10G25KT 3SM TSRA BKN030CB
     FM020000 07004KT P6SM FEW030
     FM021400 09007KT P6SM SCT035 SCT060=



000
FTUS42 KMFL 011909 AAA
TAFAPF
TAF AMD
KAPF 011909Z 0119/0218 VRB08KT P6SM VCTS SCT030CB BKN060
      TEMPO 0119/0120 VRB10G25KT 3SM TSRA BKN030CB
     FM020000 07004KT P6SM FEW030
     FM021400 09007KT P6SM SCT035 SCT060=



000
FTUS42 KMFL 011726
TAFMIA
TAF
KMIA 011726Z 0118/0218 13010KT P6SM SCT030 BKN200
      TEMPO 0118/0119 BKN030
     FM012300 10005KT P6SM FEW025
     FM021400 10010KT P6SM SCT030=



000
FTUS42 KMFL 011726
TAFAPF
TAF
KAPF 011726Z 0118/0218 06006KT P6SM VCSH BKN040 BKN060 BKN100
     FM011900 17008KT P6SM VCTS SCT030CB BKN060
     FM020000 07004KT P6SM FEW030
     FM021400 09007KT P6SM SCT035 SCT060=



000
FTUS42 KMFL 011726
TAFPBI
TAF
KPBI 011726Z 0118/0218 11010KT P6SM SCT025 SCT040
     FM012300 10006KT P6SM FEW030
     FM021400 09010KT P6SM SCT030=



000
FTUS42 KMFL 011726
TAFFLL
TAF
KFLL 011726Z 0118/0218 10010KT P6SM SCT030
     FM012300 10006KT P6SM FEW030
     FM021400 10010KT P6SM SCT030=



000
FTUS42 KMFL 011726
TAFMIA
TAF
KMIA 011726Z 0118/0218 13010KT P6SM SCT030 BKN200
      TEMPO 0118/0119 BKN030
     FM012300 10005KT P6SM FEW025
     FM021400 10010KT P6SM SCT030=



000
FTUS42 KMFL 011726
TAFAPF
TAF
KAPF 011726Z 0118/0218 06006KT P6SM VCSH BKN040 BKN060 BKN100
     FM011900 17008KT P6SM VCTS SCT030CB BKN060
     FM020000 07004KT P6SM FEW030
     FM021400 09007KT P6SM SCT035 SCT060=



000
FTUS42 KMFL 011726
TAFFLL
TAF
KFLL 011726Z 0118/0218 10010KT P6SM SCT030
     FM012300 10006KT P6SM FEW030
     FM021400 10010KT P6SM SCT030=



000
FTUS42 KMFL 011726
TAFPBI
TAF
KPBI 011726Z 0118/0218 11010KT P6SM SCT025 SCT040
     FM012300 10006KT P6SM FEW030
     FM021400 09010KT P6SM SCT030=



000
FTUS42 KMFL 011500 AAA
TAFMIA
TAF AMD
KMIA 011500Z 0115/0212 10010KT P6SM SCT030 SCT200
     FM012300 10005KT P6SM FEW025=



000
FTUS42 KMFL 011500 AAA
TAFAPF
TAF AMD
KAPF 011500Z 0115/0212 11008KT P6SM FEW025
     FM011900 17008KT P6SM VCTS SCT030CB BKN080
     FM020000 07004KT P6SM FEW030=



000
FTUS42 KMFL 011500 AAA
TAFFLL
TAF AMD
KFLL 011500Z 0115/0212 11010KT P6SM FEW025 FEW035 SCT045
     FM012300 10007KT P6SM FEW030=



000
FTUS42 KMFL 011500 AAA
TAFMIA
TAF AMD
KMIA 011500Z 0115/0212 10010KT P6SM SCT030 SCT200
     FM012300 10005KT P6SM FEW025=



000
FTUS42 KMFL 011500 AAA
TAFPBI
TAF AMD
KPBI 011500Z 0115/0212 11010KT P6SM SCT025 SCT035
      TEMPO 0115/0116 BKN035
     FM012300 10006KT P6SM FEW030=



000
FTUS42 KMFL 011500 AAA
TAFFLL
TAF AMD
KFLL 011500Z 0115/0212 11010KT P6SM FEW025 FEW035 SCT045
     FM012300 10007KT P6SM FEW030=



000
FTUS42 KMFL 011500 AAA
TAFPBI
TAF AMD
KPBI 011500Z 0115/0212 11010KT P6SM SCT025 SCT035
      TEMPO 0115/0116 BKN035
     FM012300 10006KT P6SM FEW030=



000
FTUS42 KMFL 011500 AAA
TAFAPF
TAF AMD
KAPF 011500Z 0115/0212 11008KT P6SM FEW025
     FM011900 17008KT P6SM VCTS SCT030CB BKN080
     FM020000 07004KT P6SM FEW030=



000
FTUS42 KMFL 011122
TAFFLL
TAF
KFLL 011122Z 0112/0212 09009KT P6SM SCT028
     FM011400 10010KT P6SM VCSH SCT030 SCT050
     FM012300 10007KT P6SM FEW030=



000
FTUS42 KMFL 011122
TAFPBI
TAF
KPBI 011122Z 0112/0212 10008KT P6SM FEW025
     FM011400 11010KT P6SM VCSH SCT025 SCT050
     FM012300 10006KT P6SM FEW030=



000
FTUS42 KMFL 011122
TAFMIA
TAF
KMIA 011122Z 0112/0212 10006KT P6SM FEW028 FEW200
     FM011400 11010KT P6SM VCSH SCT030 SCT050
     FM012300 10005KT P6SM FEW025=



000
FTUS42 KMFL 011122
TAFAPF
TAF
KAPF 011122Z 0112/0212 07004KT P6SM SKC
     FM011400 11008KT P6SM FEW040 SCT060
     FM011900 17008KT P6SM VCTS SCT030CB BKN080
     FM020000 07004KT P6SM FEW030=



000
FTUS42 KMFL 011122
TAFMIA
TAF
KMIA 011122Z 0112/0212 10006KT P6SM FEW028 FEW200
     FM011400 11010KT P6SM VCSH SCT030 SCT050
     FM012300 10005KT P6SM FEW025=



000
FTUS42 KMFL 011122
TAFPBI
TAF
KPBI 011122Z 0112/0212 10008KT P6SM FEW025
     FM011400 11010KT P6SM VCSH SCT025 SCT050
     FM012300 10006KT P6SM FEW030=



000
FTUS42 KMFL 011122
TAFAPF
TAF
KAPF 011122Z 0112/0212 07004KT P6SM SKC
     FM011400 11008KT P6SM FEW040 SCT060
     FM011900 17008KT P6SM VCTS SCT030CB BKN080
     FM020000 07004KT P6SM FEW030=



000
FTUS42 KMFL 011122
TAFFLL
TAF
KFLL 011122Z 0112/0212 09009KT P6SM SCT028
     FM011400 10010KT P6SM VCSH SCT030 SCT050
     FM012300 10007KT P6SM FEW030=



000
FTUS42 KMFL 010904 AAA
TAFMIA
TAF AMD
KMIA 010904Z 0109/0206 10008KT P6SM FEW025
     FM011400 09011KT P6SM VCSH SCT030 SCT050
     FM012300 10005KT P6SM FEW025=



000
FTUS42 KMFL 010904 AAA
TAFAPF
TAF AMD
KAPF 010904Z 0109/0206 00000KT P6SM SKC
     FM011400 11008KT P6SM FEW040 SCT060
     FM012100 17008KT P6SM VCTS SCT030CB BKN080
     FM020000 07004KT P6SM FEW030=



000
FTUS42 KMFL 010904 AAA
TAFPBI
TAF AMD
KPBI 010904Z 0109/0206 10006KT P6SM FEW025 SCT050
     FM011400 10011KT P6SM VCSH SCT025 SCT050
     FM012300 10005KT P6SM FEW030=



000
FTUS42 KMFL 010904 AAA
TAFFLL
TAF AMD
KFLL 010904Z 0109/0206 09007KT P6SM FEW025
     FM011400 11012KT P6SM VCSH SCT030 SCT050
     FM012300 10007KT P6SM FEW030=



000
FTUS42 KMFL 010542
TAFPBI
TAF
KPBI 010542Z 0106/0206 09005KT P6SM FEW035
     FM011400 10011KT P6SM VCSH SCT025 SCT050
     FM012300 10005KT P6SM FEW030=



000
FTUS42 KMFL 010542
TAFAPF
TAF
KAPF 010542Z 0106/0206 06004KT P6SM SKC
     FM011400 11008KT P6SM FEW040 SCT060
     FM012100 16008KT P6SM VCTS SCT030CB BKN080
     FM020000 07004KT P6SM FEW030=



000
FTUS42 KMFL 010542
TAFFLL
TAF
KFLL 010542Z 0106/0206 09007KT P6SM FEW025
     FM011400 11012KT P6SM VCSH SCT030 SCT050
     FM012300 10007KT P6SM FEW030=



000
FTUS42 KMFL 010542
TAFMIA
TAF
KMIA 010542Z 0106/0206 07003KT P6SM FEW025
     FM011400 09011KT P6SM VCSH SCT030 SCT050
     FM012300 10005KT P6SM FEW025=



000
FTUS42 KMFL 010542
TAFPBI
TAF
KPBI 010542Z 0106/0206 09005KT P6SM FEW035
     FM011400 10011KT P6SM VCSH SCT025 SCT050
     FM012300 10005KT P6SM FEW030=



000
FTUS42 KMFL 010542
TAFFLL
TAF
KFLL 010542Z 0106/0206 09007KT P6SM FEW025
     FM011400 11012KT P6SM VCSH SCT030 SCT050
     FM012300 10007KT P6SM FEW030=



000
FTUS42 KMFL 010542
TAFMIA
TAF
KMIA 010542Z 0106/0206 07003KT P6SM FEW025
     FM011400 09011KT P6SM VCSH SCT030 SCT050
     FM012300 10005KT P6SM FEW025=



000
FTUS42 KMFL 010542
TAFAPF
TAF
KAPF 010542Z 0106/0206 06004KT P6SM SKC
     FM011400 11008KT P6SM FEW040 SCT060
     FM012100 16008KT P6SM VCTS SCT030CB BKN080
     FM020000 07004KT P6SM FEW030=



000
FTUS42 KMFL 010520
TAFAPF
TAF
KAPF 010520Z 0106/0206 04003KT P6SM SKC
     FM011400 11008KT P6SM FEW040 SCT060
     FM011800 16008KT P6SM VCTS SCT030CB BKN080=



000
FTUS42 KMFL 010520
TAFFLL
TAF
KFLL 010520Z 0106/0206 12008KT P6SM FEW025
     FM011400 11012KT P6SM VCSH SCT025 SCT050=



000
FTUS42 KMFL 010520
TAFMIA
TAF
KMIA 010520Z 0106/0206 14005KT P6SM SCT025
     FM011400 10012KT P6SM VCSH SCT025 SCT050=



000
FTUS42 KMFL 010520
TAFPBI
TAF
KPBI 010520Z 0106/0206 15005KT P6SM SCT023 SCT080
     FM011500 10011KT P6SM VCSH SCT025 SCT050=



000
FTUS42 KMFL 010520
TAFMIA
TAF
KMIA 010520Z 0106/0206 14005KT P6SM SCT025
     FM011400 10012KT P6SM VCSH SCT025 SCT050=



000
FTUS42 KMFL 010520
TAFAPF
TAF
KAPF 010520Z 0106/0206 04003KT P6SM SKC
     FM011400 11008KT P6SM FEW040 SCT060
     FM011800 16008KT P6SM VCTS SCT030CB BKN080=



000
FTUS42 KMFL 010520
TAFFLL
TAF
KFLL 010520Z 0106/0206 12008KT P6SM FEW025
     FM011400 11012KT P6SM VCSH SCT025 SCT050=



000
FTUS42 KMFL 010520
TAFPBI
TAF
KPBI 010520Z 0106/0206 15005KT P6SM SCT023 SCT080
     FM011500 10011KT P6SM VCSH SCT025 SCT050=



000
FTUS42 KMFL 312330
TAFPBI
TAF
KPBI 312330Z 0100/0124 11011KT P6SM VCSH SCT025 BKN250
     FM010600 11005KT P6SM SCT025 SCT250
     FM011500 10011KT P6SM VCSH SCT025 SCT050=



000
FTUS42 KMFL 312330
TAFMIA
TAF
KMIA 312330Z 0100/0124 10011KT P6SM VCSH SCT035 SCT150 SCT250
     FM010600 09004KT P6SM FEW025 SCT040 SCT250
     FM011400 10012KT P6SM VCSH SCT025 SCT050=



000
FTUS42 KMFL 312330
TAFFLL
TAF
KFLL 312330Z 0100/0124 10008KT P6SM VCSH SCT025 SCT050 BKN070
     FM010600 10005KT P6SM FEW025 SCT040 SCT250
     FM011400 11012KT P6SM VCSH SCT025 SCT050=



000
FTUS42 KMFL 312330
TAFPBI
TAF
KPBI 312330Z 0100/0124 11011KT P6SM VCSH SCT025 BKN250
     FM010600 11005KT P6SM SCT025 SCT250
     FM011500 10011KT P6SM VCSH SCT025 SCT050=



000
FTUS42 KMFL 312330
TAFAPF
TAF
KAPF 312330Z 0100/0124 VRB04KT P6SM SCT250
     FM011400 11008KT P6SM FEW040 SCT060
     FM011800 16008KT P6SM VCTS SCT030CB BKN080=



000
FTUS42 KMFL 312330
TAFMIA
TAF
KMIA 312330Z 0100/0124 10011KT P6SM VCSH SCT035 SCT150 SCT250
     FM010600 09004KT P6SM FEW025 SCT040 SCT250
     FM011400 10012KT P6SM VCSH SCT025 SCT050=



000
FTUS42 KMFL 312330
TAFAPF
TAF
KAPF 312330Z 0100/0124 VRB04KT P6SM SCT250
     FM011400 11008KT P6SM FEW040 SCT060
     FM011800 16008KT P6SM VCTS SCT030CB BKN080=



000
FTUS42 KMFL 312330
TAFFLL
TAF
KFLL 312330Z 0100/0124 10008KT P6SM VCSH SCT025 SCT050 BKN070
     FM010600 10005KT P6SM FEW025 SCT040 SCT250
     FM011400 11012KT P6SM VCSH SCT025 SCT050=



000
FTUS42 KMFL 312108 AAA
TAFMIA
TAF AMD
KMIA 312108Z 3121/0118 09013G21KT P6SM VCSH BKN035
     FM010100 10007KT P6SM VCSH FEW025 SCT040 SCT250
     FM011400 10012KT P6SM SCT025 SCT050=



000
FTUS42 KMFL 312108 AAA
TAFFLL
TAF AMD
KFLL 312108Z 3121/0118 10014KT P6SM VCSH FEW025 SCT035 SCT250
     FM010200 10007KT P6SM VCSH FEW025 SCT040 SCT250
     FM011400 11012KT P6SM SCT025 SCT050=



000
FTUS42 KMFL 312108 AAA
TAFPBI
TAF AMD
KPBI 312108Z 3121/0118 11012KT P6SM SCT025 SCT250
     FM010100 11007KT P6SM VCSH FEW025 SCT250
     FM011300 10012KT P6SM SCT025 SCT050=



000
FTUS42 KMFL 312108 AAC
TAFAPF
TAF AMD
KAPF 312108Z 3121/0118 VRB05KT P6SM VCTS SCT030CB BKN150
     FM010000 07005KT P6SM FEW025 SCT250=



000
FTUS42 KMFL 312108 AAA
TAFFLL
TAF AMD
KFLL 312108Z 3121/0118 10014KT P6SM VCSH FEW025 SCT035 SCT250
     FM010200 10007KT P6SM VCSH FEW025 SCT040 SCT250
     FM011400 11012KT P6SM SCT025 SCT050=



000
FTUS42 KMFL 312108 AAA
TAFMIA
TAF AMD
KMIA 312108Z 3121/0118 09013G21KT P6SM VCSH BKN035
     FM010100 10007KT P6SM VCSH FEW025 SCT040 SCT250
     FM011400 10012KT P6SM SCT025 SCT050=



000
FTUS42 KMFL 312108 AAA
TAFPBI
TAF AMD
KPBI 312108Z 3121/0118 11012KT P6SM SCT025 SCT250
     FM010100 11007KT P6SM VCSH FEW025 SCT250
     FM011300 10012KT P6SM SCT025 SCT050=



000
FTUS42 KMFL 311937 AAB
TAFAPF
TAF AMD
KAPF 311937Z 3120/0118 VRB10G25KT 3SM TSRA BKN030CB BKN070
     FM312015 14010KT P6SM VCTS SCT030CB BKN060 BKN150
     FM010000 07005KT P6SM FEW025 SCT250=



000
FTUS42 KMFL 311937 AAB
TAFAPF
TAF AMD
KAPF 311937Z 3120/0118 VRB10G25KT 3SM TSRA BKN030CB BKN070
     FM312015 14010KT P6SM VCTS SCT030CB BKN060 BKN150
     FM010000 07005KT P6SM FEW025 SCT250=



000
FTUS42 KMFL 311855 AAA
TAFAPF
TAF AMD
KAPF 311855Z 3119/0118 04010KT P6SM VCTS SCT050CB BKN070
     FM010000 07005KT P6SM FEW025 SCT250=



000
FTUS42 KMFL 311855 AAA
TAFAPF
TAF AMD
KAPF 311855Z 3119/0118 04010KT P6SM VCTS SCT050CB BKN070
     FM010000 07005KT P6SM FEW025 SCT250=



000
FTUS42 KMFL 311736
TAFPBI
TAF
KPBI 311736Z 3118/0118 11012KT P6SM VCSH SCT028 SCT040
     FM010100 11007KT P6SM VCSH FEW025 SCT040 SCT250
     FM011300 10012KT P6SM SCT025 SCT050=



000
FTUS42 KMFL 311736
TAFMIA
TAF
KMIA 311736Z 3118/0118 09013G21KT P6SM VCSH SCT035 SCT050
     FM010100 10007KT P6SM VCSH FEW025 SCT040 SCT250
     FM011400 10012KT P6SM SCT025 SCT050=



000
FTUS42 KMFL 311736
TAFAPF
TAF
KAPF 311736Z 3118/0118 09010KT P6SM VCSH SCT040 BKN060
     FM312000 17008KT P6SM VCTS SCT035CB BKN050
     FM010000 07005KT P6SM FEW025 SCT250=



000
FTUS42 KMFL 311736
TAFFLL
TAF
KFLL 311736Z 3118/0118 09012KT P6SM VCSH FEW025 SCT035
     FM010200 10007KT P6SM VCSH FEW025 SCT040 SCT250
     FM011400 11012KT P6SM SCT025 SCT050=



000
FTUS42 KMFL 311736
TAFFLL
TAF
KFLL 311736Z 3118/0118 09012KT P6SM VCSH FEW025 SCT035
     FM010200 10007KT P6SM VCSH FEW025 SCT040 SCT250
     FM011400 11012KT P6SM SCT025 SCT050=



000
FTUS42 KMFL 311736
TAFAPF
TAF
KAPF 311736Z 3118/0118 09010KT P6SM VCSH SCT040 BKN060
     FM312000 17008KT P6SM VCTS SCT035CB BKN050
     FM010000 07005KT P6SM FEW025 SCT250=



000
FTUS42 KMFL 311736
TAFMIA
TAF
KMIA 311736Z 3118/0118 09013G21KT P6SM VCSH SCT035 SCT050
     FM010100 10007KT P6SM VCSH FEW025 SCT040 SCT250
     FM011400 10012KT P6SM SCT025 SCT050=



000
FTUS42 KMFL 311736
TAFPBI
TAF
KPBI 311736Z 3118/0118 11012KT P6SM VCSH SCT028 SCT040
     FM010100 11007KT P6SM VCSH FEW025 SCT040 SCT250
     FM011300 10012KT P6SM SCT025 SCT050=



000
FTUS42 KMFL 311530 AAA
TAFAPF
TAF AMD
KAPF 311530Z 3116/0112 10010KT P6SM SCT035 SCT050
     FM312100 17008KT P6SM VCTS SCT035CB BKN050
     FM010000 07005KT P6SM FEW025 SCT250=



000
FTUS42 KMFL 311530 AAA
TAFAPF
TAF AMD
KAPF 311530Z 3116/0112 10010KT P6SM SCT035 SCT050
     FM312100 17008KT P6SM VCTS SCT035CB BKN050
     FM010000 07005KT P6SM FEW025 SCT250=



000
FTUS42 KMFL 311527 AAA
TAFMIA
TAF AMD
KMIA 311527Z 3115/0112 09013KT P6SM VCSH SCT030 SCT050
      TEMPO 3115/3119 -SHRA SCT025 BKN040
     FM312300 10010KT P6SM FEW025 SCT250=



000
FTUS42 KMFL 311527 AAA
TAFMIA
TAF AMD
KMIA 311527Z 3115/0112 09013KT P6SM VCSH SCT030 SCT050
      TEMPO 3115/3119 -SHRA SCT025 BKN040
     FM312300 10010KT P6SM FEW025 SCT250=



000
FTUS42 KMFL 311523 AAA
TAFFLL
TAF AMD
KFLL 311523Z 3115/0112 10014KT P6SM VCSH FEW026 SCT040
      TEMPO 3117/3121 -SHRA SCT025 BKN040
     FM312300 10010KT P6SM FEW025 SCT250=



000
FTUS42 KMFL 311515 AAA
TAFPBI
TAF AMD
KPBI 311515Z 3115/0112 09013KT P6SM VCSH SCT025 BKN040
     FM010000 11007KT P6SM VCSH FEW025 SCT040 SCT250=



000
FTUS42 KMFL 311139
TAFAPF
TAF
KAPF 311139Z 3112/0112 07007KT P6SM FEW250
     FM311400 10011KT P6SM FEW025 SCT050
     FM312100 17008KT P6SM VCTS SCT035CB BKN050
     FM010000 07005KT P6SM FEW025 SCT250=



000
FTUS42 KMFL 311139
TAFAPF
TAF
KAPF 311139Z 3112/0112 07007KT P6SM FEW250
     FM311400 10011KT P6SM FEW025 SCT050
     FM312100 17008KT P6SM VCTS SCT035CB BKN050
     FM010000 07005KT P6SM FEW025 SCT250=



000
FTUS42 KMFL 311139
TAFFLL
TAF
KFLL 311139Z 3112/0112 10009KT P6SM VCSH SCT026 SCT250
     FM311400 10014KT P6SM VCSH SCT030 SCT250
     FM312300 10010KT P6SM FEW025 SCT250=



000
FTUS42 KMFL 311139
TAFMIA
TAF
KMIA 311139Z 3112/0112 07004KT P6SM VCSH SCT027 SCT035 BKN250
     FM311400 10014KT P6SM VCSH SCT030 SCT250
     FM312300 10010KT P6SM FEW025 SCT250=



000
FTUS42 KMFL 311139
TAFPBI
TAF
KPBI 311139Z 3112/0112 12004KT P6SM VCSH SCT035 BKN250
     FM311400 11013KT P6SM VCSH SCT035 SCT250
     FM010000 11007KT P6SM FEW025 SCT250=



000
FTUS42 KMFL 311139
TAFMIA
TAF
KMIA 311139Z 3112/0112 07004KT P6SM VCSH SCT027 SCT035 BKN250
     FM311400 10014KT P6SM VCSH SCT030 SCT250
     FM312300 10010KT P6SM FEW025 SCT250=



000
FTUS42 KMFL 311139
TAFPBI
TAF
KPBI 311139Z 3112/0112 12004KT P6SM VCSH SCT035 BKN250
     FM311400 11013KT P6SM VCSH SCT035 SCT250
     FM010000 11007KT P6SM FEW025 SCT250=



000
FTUS42 KMFL 311139
TAFFLL
TAF
KFLL 311139Z 3112/0112 10009KT P6SM VCSH SCT026 SCT250
     FM311400 10014KT P6SM VCSH SCT030 SCT250
     FM312300 10010KT P6SM FEW025 SCT250=



000
FTUS42 KMFL 310854 AAA
TAFPBI
TAF AMD
KPBI 310854Z 3109/0106 10007KT P6SM VCSH FEW025 SCT250
     FM311300 11013KT P6SM SCT030 SCT250
     FM010000 11007KT P6SM FEW025 SCT250=



000
FTUS42 KMFL 310854 AAA
TAFMIA
TAF AMD
KMIA 310854Z 3109/0106 09008KT P6SM VCSH SCT030 SCT250
     FM311300 10013KT P6SM SCT030 SCT250
     FM312300 10007KT P6SM FEW025 SCT250=



000
FTUS42 KMFL 310854 AAA
TAFFLL
TAF AMD
KFLL 310854Z 3109/0106 12008KT P6SM VCSH FEW025 SCT250
     FM311300 10013KT P6SM SCT030 SCT250
     FM312300 10010KT P6SM FEW025 SCT250=



000
FTUS42 KMFL 310854 AAA
TAFAPF
TAF AMD
KAPF 310854Z 3109/0106 07004KT P6SM SKC
     FM311400 10011KT P6SM FEW025 SCT050
     FM312100 17008KT P6SM VCTS SCT035CB BKN050
     FM010000 07005KT P6SM FEW025 SCT250=



000
FTUS42 KMFL 310854 AAA
TAFMIA
TAF AMD
KMIA 310854Z 3109/0106 09008KT P6SM VCSH SCT030 SCT250
     FM311300 10013KT P6SM SCT030 SCT250
     FM312300 10007KT P6SM FEW025 SCT250=



000
FTUS42 KMFL 310854 AAA
TAFPBI
TAF AMD
KPBI 310854Z 3109/0106 10007KT P6SM VCSH FEW025 SCT250
     FM311300 11013KT P6SM SCT030 SCT250
     FM010000 11007KT P6SM FEW025 SCT250=



000
FTUS42 KMFL 310854 AAA
TAFFLL
TAF AMD
KFLL 310854Z 3109/0106 12008KT P6SM VCSH FEW025 SCT250
     FM311300 10013KT P6SM SCT030 SCT250
     FM312300 10010KT P6SM FEW025 SCT250=



000
FTUS42 KMFL 310854 AAA
TAFAPF
TAF AMD
KAPF 310854Z 3109/0106 07004KT P6SM SKC
     FM311400 10011KT P6SM FEW025 SCT050
     FM312100 17008KT P6SM VCTS SCT035CB BKN050
     FM010000 07005KT P6SM FEW025 SCT250=



000
FTUS42 KMFL 310520
TAFAPF
TAF
KAPF 310520Z 3106/0106 07004KT P6SM FEW250
     FM311400 10011KT P6SM FEW025 SCT050
     FM312100 17008KT P6SM VCTS SCT035CB BKN050
     FM010000 07005KT P6SM FEW025 SCT250=



000
FTUS42 KMFL 310520
TAFPBI
TAF
KPBI 310520Z 3106/0106 12007KT P6SM VCSH SCT025 SCT250
     FM311300 11013KT P6SM SCT030 SCT250
     FM010000 11007KT P6SM FEW025 SCT250=



000
FTUS42 KMFL 310520
TAFPBI
TAF
KPBI 310520Z 3106/0106 12007KT P6SM VCSH SCT025 SCT250
     FM311300 11013KT P6SM SCT030 SCT250
     FM010000 11007KT P6SM FEW025 SCT250=



000
FTUS42 KMFL 310520
TAFFLL
TAF
KFLL 310520Z 3106/0106 12010KT P6SM VCSH SCT025 SCT250
     FM311300 10013KT P6SM SCT030 SCT250
     FM312300 10010KT P6SM FEW025 SCT250=



000
FTUS42 KMFL 310520
TAFAPF
TAF
KAPF 310520Z 3106/0106 07004KT P6SM FEW250
     FM311400 10011KT P6SM FEW025 SCT050
     FM312100 17008KT P6SM VCTS SCT035CB BKN050
     FM010000 07005KT P6SM FEW025 SCT250=



000
FTUS42 KMFL 310520
TAFMIA
TAF
KMIA 310520Z 3106/0106 10009KT P6SM VCSH SCT025 SCT250
     FM311300 10013KT P6SM SCT030 SCT250
     FM312300 10007KT P6SM FEW025 SCT250=



000
FTUS42 KMFL 310520
TAFFLL
TAF
KFLL 310520Z 3106/0106 12010KT P6SM VCSH SCT025 SCT250
     FM311300 10013KT P6SM SCT030 SCT250
     FM312300 10010KT P6SM FEW025 SCT250=



000
FTUS42 KMFL 310520
TAFMIA
TAF
KMIA 310520Z 3106/0106 10009KT P6SM VCSH SCT025 SCT250
     FM311300 10013KT P6SM SCT030 SCT250
     FM312300 10007KT P6SM FEW025 SCT250=



000
FTUS42 KMFL 310304 AAB
TAFFLL
TAF AMD
KFLL 310304Z 3103/3124 12012KT P6SM VCSH FEW025 SCT050
     FM310600 10010KT P6SM FEW030 SCT250
     FM311400 11014KT P6SM SCT030 SCT250=



000
FTUS42 KMFL 310304 AAB
TAFPBI
TAF AMD
KPBI 310304Z 3103/3124 12011KT P6SM VCSH SCT025
     FM310600 12006KT P6SM SCT020 BKN050
     FM311400 11012KT P6SM SCT030 SCT250=



000
FTUS42 KMFL 310304 AAB
TAFFLL
TAF AMD
KFLL 310304Z 3103/3124 12012KT P6SM VCSH FEW025 SCT050
     FM310600 10010KT P6SM FEW030 SCT250
     FM311400 11014KT P6SM SCT030 SCT250=



000
FTUS42 KMFL 310304 AAB
TAFAPF
TAF AMD
KAPF 310304Z 3103/3124 11006KT P6SM SKC
     FM311400 10011KT P6SM FEW040
     FM312000 14009KT P6SM VCTS SCT035CB BKN050=



000
FTUS42 KMFL 310304 AAB
TAFAPF
TAF AMD
KAPF 310304Z 3103/3124 11006KT P6SM SKC
     FM311400 10011KT P6SM FEW040
     FM312000 14009KT P6SM VCTS SCT035CB BKN050=



000
FTUS42 KMFL 310304 AAB
TAFMIA
TAF AMD
KMIA 310304Z 3103/3124 11009KT P6SM VCSH FEW025 SCT050
     FM310600 09004KT P6SM FEW025 SCT250
     FM311400 11014KT P6SM SCT030 SCT250=



000
FTUS42 KMFL 310304 AAB
TAFMIA
TAF AMD
KMIA 310304Z 3103/3124 11009KT P6SM VCSH FEW025 SCT050
     FM310600 09004KT P6SM FEW025 SCT250
     FM311400 11014KT P6SM SCT030 SCT250=



000
FTUS42 KMFL 310304 AAB
TAFPBI
TAF AMD
KPBI 310304Z 3103/3124 12011KT P6SM VCSH SCT025
     FM310600 12006KT P6SM SCT020 BKN050
     FM311400 11012KT P6SM SCT030 SCT250=



000
FTUS42 KMFL 310026 AAA
TAFPBI
TAF AMD
KPBI 310026Z 3100/3124 09010KT P6SM SCT024 SCT050 BKN200
     FM310600 12006KT P6SM SCT020 BKN050
     FM311400 11012KT P6SM SCT030 SCT250=



000
FTUS42 KMFL 310026 AAA
TAFFLL
TAF AMD
KFLL 310026Z 3100/3124 10011KT P6SM VCSH SCT024 SCT250
     FM311400 11014KT P6SM SCT030 SCT250=



000
FTUS42 KMFL 310026 AAA
TAFAPF
TAF AMD
KAPF 310026Z 3100/3124 11007KT P6SM SCT060
     FM310300 VRB04KT P6SM SCT250
     FM311400 10011KT P6SM FEW040
     FM312000 14009KT P6SM VCTS SCT035CB BKN050=



000
FTUS42 KMFL 310026 AAA
TAFFLL
TAF AMD
KFLL 310026Z 3100/3124 10011KT P6SM VCSH SCT024 SCT250
     FM311400 11014KT P6SM SCT030 SCT250=



000
FTUS42 KMFL 310026 AAA
TAFPBI
TAF AMD
KPBI 310026Z 3100/3124 09010KT P6SM SCT024 SCT050 BKN200
     FM310600 12006KT P6SM SCT020 BKN050
     FM311400 11012KT P6SM SCT030 SCT250=



000
FTUS42 KMFL 310026 AAA
TAFAPF
TAF AMD
KAPF 310026Z 3100/3124 11007KT P6SM SCT060
     FM310300 VRB04KT P6SM SCT250
     FM311400 10011KT P6SM FEW040
     FM312000 14009KT P6SM VCTS SCT035CB BKN050=



000
FTUS42 KMFL 310026 AAA
TAFMIA
TAF AMD
KMIA 310026Z 3100/3124 10011KT P6SM SCT035 SCT130 SCT300
     FM310600 09004KT P6SM FEW025 SCT250
     FM311400 11014KT P6SM SCT030 SCT250=



000
FTUS42 KMFL 310026 AAA
TAFMIA
TAF AMD
KMIA 310026Z 3100/3124 10011KT P6SM SCT035 SCT130 SCT300
     FM310600 09004KT P6SM FEW025 SCT250
     FM311400 11014KT P6SM SCT030 SCT250=



000
FTUS42 KMFL 302327
TAFMIA
TAF
KMIA 302327Z 3100/3124 10011KT P6SM FEW045 FEW130 SCT300
     FM310600 09004KT P6SM FEW025 SCT250
     FM311400 11014KT P6SM SCT030 SCT250=



000
FTUS42 KMFL 302327
TAFFLL
TAF
KFLL 302327Z 3100/3124 10010KT P6SM FEW025 SCT250
     FM311400 11014KT P6SM SCT030 SCT250=



000
FTUS42 KMFL 302327
TAFPBI
TAF
KPBI 302327Z 3100/3124 11010KT P6SM SCT025 BKN050 BKN200
     FM310600 12006KT P6SM SCT020 BKN050
     FM311400 11012KT P6SM SCT030 SCT250=



000
FTUS42 KMFL 302327
TAFAPF
TAF
KAPF 302327Z 3100/3124 VRB04KT P6SM VCSH BKN060 BKN250
     FM310300 VRB04KT P6SM SCT250
     FM311400 10011KT P6SM FEW040
     FM312000 14009KT P6SM VCTS SCT035CB BKN050=



000
FTUS42 KMFL 302327
TAFFLL
TAF
KFLL 302327Z 3100/3124 10010KT P6SM FEW025 SCT250
     FM311400 11014KT P6SM SCT030 SCT250=



000
FTUS42 KMFL 302327
TAFPBI
TAF
KPBI 302327Z 3100/3124 11010KT P6SM SCT025 BKN050 BKN200
     FM310600 12006KT P6SM SCT020 BKN050
     FM311400 11012KT P6SM SCT030 SCT250=



000
FTUS42 KMFL 302327
TAFAPF
TAF
KAPF 302327Z 3100/3124 VRB04KT P6SM VCSH BKN060 BKN250
     FM310300 VRB04KT P6SM SCT250
     FM311400 10011KT P6SM FEW040
     FM312000 14009KT P6SM VCTS SCT035CB BKN050=



000
FTUS42 KMFL 302327
TAFMIA
TAF
KMIA 302327Z 3100/3124 10011KT P6SM FEW045 FEW130 SCT300
     FM310600 09004KT P6SM FEW025 SCT250
     FM311400 11014KT P6SM SCT030 SCT250=



000
FTUS42 KMFL 302059 AAA
TAFMIA
TAF AMD
KMIA 302059Z 3021/3118 11013KT P6SM SCT035 SCT250
     FM310000 10007KT P6SM VCSH SCT025 SCT050
     FM311400 11013KT P6SM SCT030 SCT250=



000
FTUS42 KMFL 302059 AAB
TAFAPF
TAF AMD
KAPF 302059Z 3021/3118 VRB05KT P6SM VCTS SCT030CB BKN050 BKN250
     FM310000 10005KT P6SM VCSH SCT030 SCT050 BKN250
     FM310200 08003KT P6SM FEW030 SCT250=



000
FTUS42 KMFL 302059 AAA
TAFPBI
TAF AMD
KPBI 302059Z 3021/3118 10011KT P6SM VCSH SCT025 BKN150
     FM310000 12007KT P6SM VCSH SCT025 SCT050 BKN150
     FM310300 12006KT P6SM VCSH SCT020 BKN050
     FM311400 11011KT P6SM SCT030 SCT250=



000
FTUS42 KMFL 302059 AAA
TAFFLL
TAF AMD
KFLL 302059Z 3021/3118 10012KT P6SM SCT030 SCT250
     FM310000 10010KT P6SM VCSH SCT025 SCT050
     FM311400 11014KT P6SM SCT030 SCT250=



000
FTUS42 KMFL 302059 AAA
TAFFLL
TAF AMD
KFLL 302059Z 3021/3118 10012KT P6SM SCT030 SCT250
     FM310000 10010KT P6SM VCSH SCT025 SCT050
     FM311400 11014KT P6SM SCT030 SCT250=



000
FTUS42 KMFL 302059 AAA
TAFPBI
TAF AMD
KPBI 302059Z 3021/3118 10011KT P6SM VCSH SCT025 BKN150
     FM310000 12007KT P6SM VCSH SCT025 SCT050 BKN150
     FM310300 12006KT P6SM VCSH SCT020 BKN050
     FM311400 11011KT P6SM SCT030 SCT250=



000
FTUS42 KMFL 302059 AAB
TAFAPF
TAF AMD
KAPF 302059Z 3021/3118 VRB05KT P6SM VCTS SCT030CB BKN050 BKN250
     FM310000 10005KT P6SM VCSH SCT030 SCT050 BKN250
     FM310200 08003KT P6SM FEW030 SCT250=



000
FTUS42 KMFL 302059 AAA
TAFMIA
TAF AMD
KMIA 302059Z 3021/3118 11013KT P6SM SCT035 SCT250
     FM310000 10007KT P6SM VCSH SCT025 SCT050
     FM311400 11013KT P6SM SCT030 SCT250=



000
FTUS42 KMFL 302023 AAA
TAFAPF
TAF AMD
KAPF 302023Z 3020/3118 13010G15KT P6SM VCTS SCT030CB BKN050 BKN250
      TEMPO 3020/3021 4SM TSRA BKN030CB
     FM310000 10005KT P6SM VCSH SCT030 SCT050 BKN250
     FM310200 08003KT P6SM FEW030 SCT250=



000
FTUS42 KMFL 302023 AAA
TAFAPF
TAF AMD
KAPF 302023Z 3020/3118 13010G15KT P6SM VCTS SCT030CB BKN050 BKN250
      TEMPO 3020/3021 4SM TSRA BKN030CB
     FM310000 10005KT P6SM VCSH SCT030 SCT050 BKN250
     FM310200 08003KT P6SM FEW030 SCT250=



000
FTUS42 KMFL 301742
TAFAPF
TAF
KAPF 301742Z 3018/3118 10010G15KT P6SM FEW040 SCT250
     FM302000 13010G15KT P6SM VCTS SCT030CB BKN050 BKN250
     FM310000 10005KT P6SM VCSH SCT030 SCT050 BKN250
     FM310200 08003KT P6SM FEW030 SCT250=



000
FTUS42 KMFL 301742
TAFMIA
TAF
KMIA 301742Z 3018/3118 11013G18KT P6SM SCT030 SCT250
     FM310000 10007KT P6SM VCSH SCT025 SCT050
     FM311400 11013KT P6SM SCT030 SCT250=



000
FTUS42 KMFL 301742
TAFFLL
TAF
KFLL 301742Z 3018/3118 10012G20KT P6SM FEW030 SCT250
     FM310000 10010KT P6SM VCSH SCT025 SCT050
     FM311400 11014KT P6SM SCT030 SCT250=



000
FTUS42 KMFL 301742
TAFPBI
TAF
KPBI 301742Z 3018/3118 10011KT P6SM VCSH SCT050 BKN150
     FM310000 12007KT P6SM VCSH SCT025 SCT050 BKN150
     FM310300 12006KT P6SM VCSH SCT020 BKN050
     FM311400 11011KT P6SM SCT030 SCT250=



000
FTUS42 KMFL 301742
TAFMIA
TAF
KMIA 301742Z 3018/3118 11013G18KT P6SM SCT030 SCT250
     FM310000 10007KT P6SM VCSH SCT025 SCT050
     FM311400 11013KT P6SM SCT030 SCT250=



000
FTUS42 KMFL 301742
TAFAPF
TAF
KAPF 301742Z 3018/3118 10010G15KT P6SM FEW040 SCT250
     FM302000 13010G15KT P6SM VCTS SCT030CB BKN050 BKN250
     FM310000 10005KT P6SM VCSH SCT030 SCT050 BKN250
     FM310200 08003KT P6SM FEW030 SCT250=



000
FTUS42 KMFL 301742
TAFPBI
TAF
KPBI 301742Z 3018/3118 10011KT P6SM VCSH SCT050 BKN150
     FM310000 12007KT P6SM VCSH SCT025 SCT050 BKN150
     FM310300 12006KT P6SM VCSH SCT020 BKN050
     FM311400 11011KT P6SM SCT030 SCT250=



000
FTUS42 KMFL 301742
TAFFLL
TAF
KFLL 301742Z 3018/3118 10012G20KT P6SM FEW030 SCT250
     FM310000 10010KT P6SM VCSH SCT025 SCT050
     FM311400 11014KT P6SM SCT030 SCT250=



    US Dept of Commerce
    National Oceanic and Atmospheric Administration
    National Weather Service
    1325 East West Highway
    Silver Spring, MD 20910
    Page Author: NWS Internet Services Team
Disclaimer
Information Quality
Credits
Glossary
Privacy Policy
Freedom of Information Act (FOIA)
About Us
Career Opportunities